createdAt,value
2022-08-03T00:01:52.009Z,2.75
2022-08-03T00:04:18.525Z,2.80
2022-08-03T00:06:44.895Z,4.97
2022-08-03T00:09:11.684Z,4.83
2022-08-03T00:11:38.264Z,3.88
2022-08-03T00:14:07.938Z,2.80
2022-08-03T00:16:34.897Z,1.77
2022-08-03T00:19:02.352Z,1.95
2022-08-03T00:21:29.246Z,2.70
2022-08-03T00:23:56.184Z,3.85
2022-08-03T00:26:22.724Z,3.75
2022-08-03T00:28:49.948Z,2.63
2022-08-03T00:31:16.467Z,3.42
2022-08-03T00:33:59.150Z,3.17
2022-08-03T00:36:29.452Z,4.10
2022-08-03T00:38:56.547Z,3.42
2022-08-03T00:41:23.184Z,3.45
2022-08-03T00:43:49.597Z,3.58
2022-08-03T00:46:21.022Z,6.07
2022-08-03T00:48:52.449Z,5.20
2022-08-03T00:51:21.200Z,5.13
2022-08-03T00:53:47.970Z,4.45
2022-08-03T00:56:16.085Z,6.35
2022-08-03T00:58:44.628Z,2.77
2022-08-03T01:01:12.773Z,4.72
2022-08-03T01:03:39.720Z,4.10
2022-08-03T01:06:12.045Z,2.38
2022-08-03T01:08:51.540Z,6.38
2022-08-03T01:11:21.840Z,6.67
2022-08-03T01:14:01.847Z,3.78
2022-08-03T01:16:41.600Z,3.05
2022-08-03T01:19:20.036Z,5.03
2022-08-03T01:21:52.568Z,5.03
2022-08-03T01:24:37.664Z,3.90
2022-08-03T01:27:12.880Z,6.38
2022-08-03T01:29:59.851Z,3.83
2022-08-03T01:33:00.562Z,4.10
2022-08-03T01:35:35.526Z,5.55
2022-08-03T01:38:12.182Z,4.60
2022-08-03T01:40:41.551Z,5.32
2022-08-03T01:43:10.642Z,4.95
2022-08-03T01:45:38.417Z,5.00
2022-08-03T01:48:06.308Z,4.60
2022-08-03T01:50:34.346Z,6.13
2022-08-03T01:53:02.088Z,4.22
2022-08-03T01:55:31.997Z,4.78
2022-08-03T01:58:06.217Z,5.35
2022-08-03T02:00:36.699Z,5.43
2022-08-03T02:03:06.432Z,4.60
2022-08-03T02:05:34.325Z,3.60
2022-08-03T02:08:03.540Z,6.32
2022-08-03T02:10:34.951Z,4.30
2022-08-03T02:13:05.103Z,4.43
2022-08-03T02:15:33.781Z,5.30
2022-08-03T02:18:01.824Z,5.95
2022-08-03T02:20:30.177Z,5.18
2022-08-03T02:22:56.534Z,8.07
2022-08-03T02:25:23.517Z,3.92
2022-08-03T02:28:01.703Z,5.20
2022-08-03T02:30:33.243Z,8.32
2022-08-03T02:33:02.020Z,8.68
2022-08-03T02:35:30.660Z,8.23
2022-08-03T02:38:02.175Z,5.05
2022-08-03T02:40:30.196Z,3.97
2022-08-03T02:43:02.426Z,5.55
2022-08-03T02:45:29.909Z,8.05
2022-08-03T02:48:02.788Z,4.20
2022-08-03T02:50:30.480Z,6.63
2022-08-03T02:52:59.585Z,7.67
2022-08-03T02:55:27.339Z,11.35
2022-08-03T02:57:55.534Z,5.05
2022-08-03T03:00:27.872Z,5.80
2022-08-03T03:02:58.085Z,4.13
2022-08-03T03:05:53.294Z,10.23
2022-08-03T03:08:18.866Z,4.15
2022-08-03T03:10:48.711Z,5.55
2022-08-03T03:13:21.771Z,6.25
2022-08-03T03:15:48.965Z,5.65
2022-08-03T03:18:21.881Z,5.03
2022-08-03T03:20:50.407Z,5.95
2022-08-03T03:23:17.700Z,6.32
2022-08-03T03:25:44.983Z,7.13
2022-08-03T03:28:11.671Z,9.82
2022-08-03T03:30:38.604Z,7.80
2022-08-03T03:33:05.215Z,6.15
2022-08-03T03:35:38.896Z,8.07
2022-08-03T03:38:06.822Z,9.25
2022-08-03T03:40:35.402Z,8.88
2022-08-03T03:43:02.310Z,9.63
2022-08-03T03:45:30.977Z,9.43
2022-08-03T03:48:00.426Z,7.28
2022-08-03T03:50:28.296Z,5.68
2022-08-03T03:52:54.798Z,9.25
2022-08-03T03:55:21.248Z,9.27
2022-08-03T03:57:47.697Z,6.22
2022-08-03T04:00:15.915Z,7.82
2022-08-03T04:02:42.533Z,8.05
2022-08-03T04:05:28.203Z,8.70
2022-08-03T04:08:12.869Z,8.43
2022-08-03T04:11:00.329Z,7.07
2022-08-03T04:13:32.673Z,5.57
2022-08-03T04:15:59.848Z,7.05
2022-08-03T04:18:30.237Z,3.30
2022-08-03T04:20:59.069Z,5.33
2022-08-03T04:23:28.205Z,11.43
2022-08-03T04:25:56.359Z,7.32
2022-08-03T04:28:30.343Z,6.85
2022-08-03T04:31:01.958Z,7.63
2022-08-03T04:33:31.163Z,6.50
2022-08-03T04:36:02.509Z,7.32
2022-08-03T04:38:32.758Z,7.68
2022-08-03T04:41:01.502Z,7.38
2022-08-03T04:43:29.317Z,8.82
2022-08-03T04:45:57.110Z,10.07
2022-08-03T04:48:24.136Z,10.00
2022-08-03T04:50:50.987Z,5.57
2022-08-03T04:53:18.148Z,7.78
2022-08-03T04:55:46.745Z,5.00
2022-08-03T04:58:13.133Z,8.63
2022-08-03T05:00:39.660Z,11.38
2022-08-03T05:03:23.920Z,6.53
2022-08-03T05:06:02.019Z,8.70
2022-08-03T05:08:46.531Z,11.85
2022-08-03T05:11:16.943Z,9.30
2022-08-03T05:13:44.390Z,10.52
2022-08-03T05:16:11.828Z,8.02
2022-08-03T05:18:38.236Z,6.43
2022-08-03T05:21:05.056Z,5.75
2022-08-03T05:23:31.662Z,9.93
2022-08-03T05:25:58.101Z,7.15
2022-08-03T05:28:24.487Z,10.88
2022-08-03T05:30:50.940Z,10.57
2022-08-03T05:33:17.327Z,8.35
2022-08-03T05:36:01.149Z,6.63
2022-08-03T05:38:34.211Z,9.77
2022-08-03T05:41:23.212Z,13.00
2022-08-03T05:43:55.029Z,6.68
2022-08-03T05:46:24.235Z,9.20
2022-08-03T05:48:50.967Z,8.60
2022-08-03T05:51:17.491Z,8.55
2022-08-03T05:53:45.787Z,9.05
2022-08-03T05:56:14.531Z,11.25
2022-08-03T05:58:48.362Z,4.70
2022-08-03T06:01:21.458Z,8.33
2022-08-03T06:03:49.260Z,11.75
2022-08-03T06:06:16.069Z,11.93
2022-08-03T06:08:43.369Z,10.57
2022-08-03T06:11:09.919Z,10.70
2022-08-03T06:13:36.465Z,9.47
2022-08-03T06:16:02.923Z,10.55
2022-08-03T06:18:29.423Z,9.13
2022-08-03T06:20:55.880Z,8.90
2022-08-03T06:23:23.840Z,6.85
2022-08-03T06:26:09.080Z,12.20
2022-08-03T06:28:53.118Z,13.25
2022-08-03T06:31:32.268Z,6.90
2022-08-03T06:34:31.011Z,10.00
2022-08-03T06:36:48.486Z,7.28
2022-08-03T06:39:14.846Z,11.40
2022-08-03T06:41:44.834Z,6.70
2022-08-03T06:44:11.874Z,7.13
2022-08-03T06:46:38.310Z,12.02
2022-08-03T06:49:04.810Z,7.35
2022-08-03T06:52:04.186Z,8.23
2022-08-03T06:54:18.149Z,9.60
2022-08-03T06:56:44.571Z,9.45
2022-08-03T07:00:08.274Z,10.40
2022-08-03T07:01:57.379Z,9.55
2022-08-03T07:04:23.765Z,11.07
2022-08-03T07:06:50.155Z,10.27
2022-08-03T07:09:16.559Z,11.65
2022-08-03T07:11:43.018Z,13.80
2022-08-03T07:14:09.508Z,11.60
2022-08-03T07:16:35.966Z,9.23
2022-08-03T07:19:02.522Z,9.10
2022-08-03T07:21:29.006Z,10.57
2022-08-03T07:23:55.412Z,16.17
2022-08-03T07:26:21.867Z,15.07
2022-08-03T07:28:48.362Z,9.70
2022-08-03T07:31:14.750Z,12.23
2022-08-03T07:33:41.133Z,9.40
2022-08-03T07:36:07.628Z,8.82
2022-08-03T07:38:36.175Z,12.45
2022-08-03T07:41:03.377Z,10.13
2022-08-03T07:43:29.940Z,9.20
2022-08-03T07:45:56.312Z,10.07
2022-08-03T07:48:22.754Z,9.18
2022-08-03T07:50:49.177Z,8.48
2022-08-03T07:53:15.559Z,10.47
2022-08-03T07:55:42.404Z,8.15
2022-08-03T07:58:22.061Z,8.02
2022-08-03T08:00:52.859Z,13.13
2022-08-03T08:03:19.927Z,7.25
2022-08-03T08:05:46.669Z,7.37
2022-08-03T08:08:13.496Z,10.45
2022-08-03T08:10:39.954Z,6.80
2022-08-03T08:13:06.455Z,7.82
2022-08-03T08:15:33.029Z,9.95
2022-08-03T08:18:01.422Z,10.27
2022-08-03T08:20:33.539Z,8.18
2022-08-03T08:23:08.878Z,9.05
2022-08-03T08:25:51.857Z,10.02
2022-08-03T08:28:30.709Z,8.48
2022-08-03T08:31:00.024Z,13.47
2022-08-03T08:33:37.409Z,11.60
2022-08-03T08:36:15.360Z,7.78
2022-08-03T08:38:44.418Z,10.07
2022-08-03T08:41:11.523Z,12.18
2022-08-03T08:43:38.233Z,9.23
2022-08-03T08:46:08.093Z,10.27
2022-08-03T08:48:38.710Z,10.65
2022-08-03T08:51:05.611Z,7.47
2022-08-03T08:53:36.223Z,12.43
2022-08-03T08:56:04.685Z,7.73
2022-08-03T08:58:37.877Z,12.82
2022-08-03T09:01:05.643Z,12.90
2022-08-03T09:03:34.203Z,12.05
2022-08-03T09:06:00.962Z,9.55
2022-08-03T09:08:29.286Z,9.37
2022-08-03T09:10:55.807Z,14.23
2022-08-03T09:13:22.653Z,14.68
2022-08-03T09:16:00.949Z,13.55
2022-08-03T09:18:32.491Z,9.77
2022-08-03T09:21:35.522Z,11.40
2022-08-03T09:24:07.078Z,14.70
2022-08-03T09:26:37.277Z,11.43
2022-08-03T09:29:09.605Z,9.95
2022-08-03T09:31:43.690Z,11.73
2022-08-03T09:34:17.017Z,10.17
2022-08-03T09:36:49.252Z,10.15
2022-08-03T09:39:18.037Z,12.10
2022-08-03T09:42:03.620Z,9.13
2022-08-03T09:44:38.232Z,11.68
2022-08-03T09:47:06.119Z,10.60
2022-08-03T09:49:32.798Z,9.90
2022-08-03T09:52:32.529Z,13.00
2022-08-03T09:55:02.005Z,10.43
2022-08-03T09:57:30.662Z,10.75
2022-08-03T10:00:10.889Z,11.23
2022-08-03T10:02:38.137Z,10.48
2022-08-03T10:05:05.967Z,10.48
2022-08-03T10:07:45.831Z,11.73
2022-08-03T10:10:31.765Z,10.95
2022-08-03T10:13:00.235Z,8.30
2022-08-03T10:16:22.286Z,7.90
2022-08-03T10:18:14.040Z,8.77
2022-08-03T10:20:51.582Z,9.05
2022-08-03T10:23:21.438Z,9.85
2022-08-03T10:25:51.515Z,17.80
2022-08-03T10:28:21.199Z,9.63
2022-08-03T10:30:51.599Z,8.82
2022-08-03T10:33:50.890Z,7.07
2022-08-03T10:36:13.441Z,10.18
2022-08-03T10:38:53.106Z,7.93
2022-08-03T10:41:29.690Z,6.20
2022-08-03T10:44:05.390Z,12.80
2022-08-03T10:46:34.986Z,8.13
2022-08-03T10:49:02.777Z,7.45
2022-08-03T10:51:32.122Z,9.07
2022-08-03T10:54:01.802Z,6.95
2022-08-03T10:56:54.579Z,10.70
2022-08-03T10:59:45.942Z,6.95
2022-08-03T11:02:14.163Z,8.55
2022-08-03T11:04:41.597Z,9.93
2022-08-03T11:07:21.738Z,13.77
2022-08-03T11:09:51.086Z,7.85
2022-08-03T11:12:31.263Z,7.50
2022-08-03T11:15:08.793Z,7.18
2022-08-03T11:17:46.846Z,11.43
2022-08-03T11:20:44.033Z,10.23
2022-08-03T11:23:10.639Z,8.05
2022-08-03T11:26:15.117Z,10.13
2022-08-03T11:28:43.593Z,9.48
2022-08-03T11:31:46.758Z,7.07
2022-08-03T11:34:12.421Z,8.88
2022-08-03T11:37:16.981Z,8.95
2022-08-03T11:39:46.636Z,10.30
2022-08-03T11:42:22.157Z,7.40
2022-08-03T11:44:52.318Z,10.57
2022-08-03T11:47:20.932Z,8.52
2022-08-03T11:49:49.291Z,9.55
2022-08-03T11:52:17.076Z,7.80
2022-08-03T11:54:44.085Z,10.85
2022-08-03T11:57:10.616Z,11.17
2022-08-03T11:59:38.759Z,7.03
2022-08-03T12:02:13.109Z,7.20
2022-08-03T12:05:01.190Z,5.60
2022-08-03T12:08:04.150Z,7.85
2022-08-03T12:10:16.700Z,9.03
2022-08-03T12:12:46.446Z,9.40
2022-08-03T12:15:13.243Z,5.13
2022-08-03T12:17:41.382Z,8.18
2022-08-03T12:20:09.908Z,8.23
2022-08-03T12:22:38.211Z,5.33
2022-08-03T12:25:08.634Z,8.80
2022-08-03T12:27:35.832Z,9.68
2022-08-03T12:30:02.582Z,9.45
2022-08-03T12:32:29.990Z,6.75
2022-08-03T12:35:01.584Z,7.30
2022-08-03T12:37:28.980Z,5.30
2022-08-03T12:40:03.577Z,6.90
2022-08-03T12:42:37.291Z,5.75
2022-08-03T12:45:21.909Z,7.13
2022-08-03T12:48:00.191Z,5.47
2022-08-03T12:50:31.517Z,3.72
2022-08-03T12:52:59.611Z,5.53
2022-08-03T12:55:57.201Z,4.82
2022-08-03T12:58:34.699Z,4.00
2022-08-03T13:01:04.806Z,6.67
2022-08-03T13:03:45.860Z,5.75
2022-08-03T13:06:18.893Z,3.53
2022-08-03T13:08:47.837Z,8.13
2022-08-03T13:11:20.514Z,5.65
2022-08-03T13:13:46.990Z,5.43
2022-08-03T13:16:18.760Z,4.82
2022-08-03T13:18:47.080Z,4.32
2022-08-03T13:21:16.135Z,3.05
2022-08-03T13:23:43.434Z,3.80
2022-08-03T13:26:10.725Z,6.33
2022-08-03T13:28:37.571Z,4.50
2022-08-03T13:31:04.425Z,4.55
2022-08-03T13:33:33.981Z,4.75
2022-08-03T13:36:00.534Z,5.07
2022-08-03T13:38:27.380Z,5.73
2022-08-03T13:40:55.049Z,4.15
2022-08-03T13:43:22.425Z,4.47
2022-08-03T13:45:53.513Z,5.32
2022-08-03T13:48:36.138Z,5.88
2022-08-03T13:51:11.853Z,5.80
2022-08-03T13:53:49.462Z,5.45
2022-08-03T13:56:15.897Z,4.68
2022-08-03T13:58:42.368Z,3.92
2022-08-03T14:01:08.881Z,4.00
2022-08-03T14:03:35.296Z,5.97
2022-08-03T14:06:01.673Z,4.15
2022-08-03T14:08:28.093Z,5.28
2022-08-03T14:10:55.188Z,5.50
2022-08-03T14:13:22.460Z,4.65
2022-08-03T14:15:49.732Z,6.20
2022-08-03T14:18:28.365Z,6.10
2022-08-03T14:20:59.729Z,2.70
2022-08-03T14:23:28.501Z,3.70
2022-08-03T14:25:55.287Z,4.43
2022-08-03T14:28:23.640Z,4.93
2022-08-03T14:30:52.150Z,4.88
2022-08-03T14:33:18.703Z,5.00
2022-08-03T14:35:45.144Z,10.68
2022-08-03T14:38:11.520Z,4.03
2022-08-03T14:40:37.922Z,6.77
2022-08-03T14:43:04.594Z,3.67
2022-08-03T14:45:31.105Z,2.30
2022-08-03T14:50:28.636Z,3.78
2022-08-03T14:50:51.006Z,5.47
2022-08-03T14:53:18.197Z,3.90
2022-08-03T14:55:50.774Z,4.82
2022-08-03T14:58:22.539Z,5.68
2022-08-03T15:00:50.459Z,4.20
2022-08-03T15:03:20.393Z,6.10
2022-08-03T15:05:47.072Z,5.40
2022-08-03T15:08:15.872Z,6.55
2022-08-03T15:10:44.841Z,2.90
2022-08-03T15:13:16.612Z,4.95
2022-08-03T15:15:43.234Z,4.72
2022-08-03T15:18:09.736Z,3.53
2022-08-03T15:20:44.510Z,5.13
2022-08-03T15:23:12.041Z,4.85
2022-08-03T15:26:28.360Z,4.07
2022-08-03T15:28:24.935Z,6.65
2022-08-03T15:30:54.331Z,5.67
2022-08-03T15:33:20.953Z,4.50
2022-08-03T15:35:47.764Z,4.70
2022-08-03T15:38:14.380Z,5.47
2022-08-03T15:40:41.591Z,7.13
2022-08-03T15:43:08.117Z,12.63
2022-08-03T15:45:36.408Z,5.00
2022-08-03T15:48:04.893Z,4.70
2022-08-03T15:50:31.353Z,5.10
2022-08-03T15:53:00.452Z,5.07
2022-08-03T15:55:27.147Z,2.73
2022-08-03T15:59:10.092Z,7.32
2022-08-03T16:00:41.174Z,6.10
2022-08-03T16:03:07.708Z,11.68
2022-08-03T16:05:34.139Z,5.45
2022-08-03T16:08:03.763Z,11.00
2022-08-03T16:10:34.635Z,6.53
2022-08-03T16:13:01.166Z,7.40
2022-08-03T16:15:28.241Z,3.22
2022-08-03T16:17:54.878Z,5.05
2022-08-03T16:20:31.245Z,6.20
2022-08-03T16:23:10.726Z,5.18
2022-08-03T16:25:39.778Z,4.45
2022-08-03T16:28:13.120Z,4.32
2022-08-03T16:30:42.646Z,4.03
2022-08-03T16:33:09.548Z,3.97
2022-08-03T16:35:36.111Z,5.18
2022-08-03T16:38:07.872Z,2.63
2022-08-03T16:40:36.320Z,5.80
2022-08-03T16:43:18.536Z,4.40
2022-08-03T16:45:48.543Z,3.10
2022-08-03T16:48:16.569Z,7.65
2022-08-03T16:50:43.188Z,2.22
2022-08-03T16:53:12.800Z,2.65
2022-08-03T16:55:52.138Z,3.80
2022-08-03T16:58:34.511Z,4.63
2022-08-03T17:01:22.194Z,5.40
2022-08-03T17:04:04.689Z,6.90
2022-08-03T17:06:37.537Z,3.22
2022-08-03T17:09:10.149Z,5.07
2022-08-03T17:11:47.107Z,4.20
2022-08-03T17:14:15.622Z,3.35
2022-08-03T17:16:52.762Z,5.03
2022-08-03T17:19:24.897Z,4.90
2022-08-03T17:21:59.736Z,4.05
2022-08-03T17:24:32.202Z,6.17
2022-08-03T17:27:01.762Z,4.38
2022-08-03T17:29:33.419Z,3.95
2022-08-03T17:32:07.836Z,4.45
2022-08-03T17:34:37.270Z,3.72
2022-08-03T17:37:06.080Z,3.90
2022-08-03T17:39:57.141Z,3.80
2022-08-03T17:42:31.266Z,4.68
2022-08-03T17:45:02.020Z,3.97
2022-08-03T17:47:57.103Z,5.47
2022-08-03T17:50:33.381Z,4.27
2022-08-03T17:53:07.749Z,6.00
2022-08-03T17:55:55.681Z,5.82
2022-08-03T17:58:42.132Z,4.20
2022-08-03T18:01:57.429Z,3.53
2022-08-03T18:04:29.612Z,4.67
2022-08-03T18:06:59.337Z,6.40
2022-08-03T18:10:04.008Z,4.65
2022-08-03T18:12:23.955Z,5.53
2022-08-03T18:15:08.704Z,5.30
2022-08-03T18:17:55.445Z,2.83
2022-08-03T18:20:34.030Z,4.40
2022-08-03T18:23:08.959Z,3.03
2022-08-03T18:25:45.292Z,4.93
2022-08-03T18:28:15.874Z,2.58
2022-08-03T18:30:54.470Z,4.20
2022-08-03T18:34:16.412Z,4.50
2022-08-03T18:36:21.783Z,6.45
2022-08-03T18:38:58.398Z,4.15
2022-08-03T18:41:32.619Z,5.38
2022-08-03T18:44:07.983Z,3.63
2022-08-03T18:47:07.414Z,3.20
2022-08-03T18:49:55.015Z,2.22
2022-08-03T18:52:45.890Z,3.47
2022-08-03T18:55:33.463Z,4.03
2022-08-03T18:58:18.012Z,4.23
2022-08-03T19:01:03.477Z,5.75
2022-08-03T19:03:42.938Z,3.50
2022-08-03T19:06:19.706Z,6.55
2022-08-03T19:09:04.135Z,5.10
2022-08-03T19:12:12.740Z,4.37
2022-08-03T19:14:44.624Z,3.80
2022-08-03T19:17:12.542Z,4.90
2022-08-03T19:19:45.160Z,5.78
2022-08-03T19:22:16.228Z,4.97
2022-08-03T19:24:49.198Z,4.30
2022-08-03T19:27:15.969Z,4.03
2022-08-03T19:29:58.036Z,2.90
2022-08-03T19:32:29.505Z,2.97
2022-08-03T19:34:57.156Z,4.35
2022-08-03T19:37:38.389Z,3.93
2022-08-03T19:40:10.797Z,3.83
2022-08-03T19:42:44.405Z,5.78
2022-08-03T19:45:15.421Z,3.80
2022-08-03T19:47:51.535Z,3.78
2022-08-03T19:50:20.115Z,3.53
2022-08-03T19:52:48.161Z,3.47
2022-08-03T19:55:17.087Z,2.90
2022-08-03T19:57:46.722Z,3.20
2022-08-03T20:00:19.575Z,2.83
2022-08-03T20:02:46.338Z,2.77
2022-08-03T20:05:15.390Z,5.13
2022-08-03T20:07:47.467Z,3.95
2022-08-03T20:10:15.912Z,3.38
2022-08-03T20:12:44.356Z,1.85
2022-08-03T20:15:11.381Z,2.67
2022-08-03T20:17:56.522Z,4.18
2022-08-03T20:20:29.599Z,3.65
2022-08-03T20:22:58.741Z,6.60
2022-08-03T20:25:38.186Z,5.07
2022-08-03T20:28:15.386Z,5.50
2022-08-03T20:30:44.468Z,1.90
2022-08-03T20:33:18.561Z,4.78
2022-08-03T20:35:49.844Z,3.58
2022-08-03T20:38:19.992Z,5.15
2022-08-03T20:40:54.091Z,1.83
2022-08-03T20:43:20.584Z,4.40
2022-08-03T20:45:58.529Z,3.67
2022-08-03T20:48:36.292Z,4.13
2022-08-03T20:51:19.984Z,3.83
2022-08-03T20:54:00.325Z,4.47
2022-08-03T20:56:31.877Z,4.28
2022-08-03T20:59:03.214Z,4.45
2022-08-03T21:01:36.100Z,1.98
2022-08-03T21:04:09.536Z,3.55
2022-08-03T21:06:41.617Z,3.00
2022-08-03T21:09:18.315Z,6.90
2022-08-03T21:11:49.129Z,5.03
2022-08-03T21:14:22.858Z,7.18
2022-08-03T21:16:51.542Z,4.35
2022-08-03T21:19:22.852Z,4.73
2022-08-03T21:21:50.162Z,4.43
2022-08-03T21:24:19.495Z,3.92
2022-08-03T21:26:49.229Z,5.63
2022-08-03T21:29:16.895Z,4.13
2022-08-03T21:31:43.589Z,5.27
2022-08-03T21:34:10.251Z,3.03
2022-08-03T21:36:37.731Z,2.75
2022-08-03T21:39:07.964Z,5.13
2022-08-03T21:41:36.068Z,3.15
2022-08-03T21:44:03.437Z,2.33
2022-08-03T21:46:35.123Z,4.35
2022-08-03T21:50:02.661Z,3.38
2022-08-03T21:51:57.681Z,4.57
2022-08-03T21:54:31.713Z,3.08
2022-08-03T21:57:02.966Z,2.57
2022-08-03T21:59:32.617Z,4.13
2022-08-03T22:01:59.320Z,3.63
2022-08-03T22:04:45.916Z,4.45
2022-08-03T22:07:14.155Z,2.83
2022-08-03T22:09:40.750Z,3.33
2022-08-03T22:12:23.635Z,5.75
2022-08-03T22:15:00.481Z,11.13
2022-08-03T22:17:55.060Z,3.95
2022-08-03T22:20:20.156Z,3.28
2022-08-03T22:22:50.165Z,4.00
2022-08-03T22:25:29.041Z,5.28
2022-08-03T22:27:56.624Z,2.92
2022-08-03T22:30:23.037Z,4.10
2022-08-03T22:32:53.068Z,8.45
2022-08-03T22:35:21.268Z,6.63
2022-08-03T22:37:53.784Z,3.70
2022-08-03T22:40:20.489Z,2.90
2022-08-03T22:42:49.502Z,3.83
2022-08-03T22:46:07.219Z,4.53
2022-08-03T22:48:07.685Z,4.47
2022-08-03T22:50:34.827Z,9.98
2022-08-03T22:53:01.431Z,4.70
2022-08-03T22:55:27.940Z,4.38
2022-08-03T22:57:55.684Z,5.20
2022-08-03T23:00:23.821Z,3.90
2022-08-03T23:02:53.112Z,4.07
2022-08-03T23:06:01.494Z,4.50
2022-08-03T23:08:22.990Z,8.80
2022-08-03T23:10:51.557Z,7.10
2022-08-03T23:13:19.244Z,5.30
2022-08-03T23:15:56.742Z,6.82
2022-08-03T23:18:24.923Z,3.42
2022-08-03T23:20:52.716Z,5.80
2022-08-03T23:23:20.588Z,4.53
2022-08-03T23:25:47.824Z,4.83
2022-08-03T23:28:16.282Z,5.25
2022-08-03T23:30:47.479Z,4.28
2022-08-03T23:33:15.527Z,6.32
2022-08-03T23:36:28.961Z,6.72
2022-08-03T23:38:44.983Z,6.03
2022-08-03T23:41:12.583Z,6.70
2022-08-03T23:43:51.114Z,5.68
2022-08-03T23:46:20.414Z,6.22
2022-08-03T23:48:46.858Z,5.25
2022-08-03T23:51:33.063Z,6.93
2022-08-03T23:54:18.235Z,6.43
2022-08-03T23:56:47.561Z,3.90
2022-08-03T23:59:27.895Z,8.15
